Time;durP1;ratioP1;P1;durP2;ratioP2;P2;SDS_P1;SDS_P2;PMS_P1;PMS_P2;Temp;Humidity;BMP_temperature;BMP_pressure;BME280_temperature;BME280_humidity;BME280_pressure;Samples;Min_cycle;Max_cycle;Signal;HPM_P1;HPM_P2
2023/10/27 00:01:12;;;;;;;10.13;8.35;;;13.50;77.30;;;;;;5020928;28;20045;-77
2023/10/27 00:03:38;;;;;;;11.25;8.35;;;13.50;77.30;;;;;;5038349;28;20040;-77
2023/10/27 00:06:04;;;;;;;10.90;8.27;;;13.50;77.30;;;;;;5038401;28;20037;-77
2023/10/27 00:08:30;;;;;;;11.63;8.52;;;13.50;77.30;;;;;;5039312;28;20482;-76
2023/10/27 00:10:55;;;;;;;10.73;8.10;;;13.50;77.30;;;;;;5038571;28;20034;-76
2023/10/27 00:13:21;;;;;;;10.75;8.38;;;13.50;77.30;;;;;;5016236;28;20044;-77
2023/10/27 00:15:47;;;;;;;10.32;7.72;;;13.50;77.30;;;;;;5035011;28;20065;-77
2023/10/27 00:18:13;;;;;;;10.20;8.05;;;13.50;77.30;;;;;;5034857;28;20585;-77
2023/10/27 00:20:39;;;;;;;11.60;8.77;;;13.60;77.40;;;;;;5044158;28;20486;-77
2023/10/27 00:23:05;;;;;;;10.32;7.85;;;13.50;77.30;;;;;;5038445;28;20509;-77
2023/10/27 00:25:30;;;;;;;11.27;8.35;;;13.50;77.30;;;;;;5036059;28;20028;-76
2023/10/27 00:27:56;;;;;;;10.30;7.78;;;13.50;77.30;;;;;;5019698;28;20106;-77
2023/10/27 00:30:22;;;;;;;10.88;7.85;;;13.50;77.30;;;;;;5039531;28;20106;-76
2023/10/27 00:32:48;;;;;;;11.00;8.63;;;13.50;77.30;;;;;;5038112;28;20029;-76
2023/10/27 00:35:14;;;;;;;11.40;8.45;;;13.50;77.30;;;;;;5023728;28;20036;-78
2023/10/27 00:37:40;;;;;;;12.38;9.27;;;13.50;77.40;;;;;;5038821;28;20519;-77
2023/10/27 00:40:07;;;;;;;11.38;8.55;;;13.50;77.40;;;;;;5033695;28;20079;-76
2023/10/27 00:42:33;;;;;;;11.88;9.18;;;13.50;77.40;;;;;;5037043;28;20017;-76
2023/10/27 00:44:59;;;;;;;10.50;8.48;;;13.50;77.40;;;;;;5034479;28;20425;-77
2023/10/27 00:47:26;;;;;;;11.65;8.80;;;13.50;77.40;;;;;;5031821;28;20033;-77
2023/10/27 00:49:54;;;;;;;10.43;7.85;;;13.50;77.40;;;;;;5028656;28;20036;-77
2023/10/27 00:52:20;;;;;;;9.95;7.88;;;13.50;77.40;;;;;;5042691;28;20492;-77
2023/10/27 00:54:48;;;;;;;11.23;8.73;;;13.50;77.40;;;;;;5035916;28;20032;-77
2023/10/27 00:57:18;;;;;;;10.90;8.32;;;13.50;77.40;;;;;;5039479;28;20040;-77
2023/10/27 00:59:44;;;;;;;11.88;8.70;;;13.50;77.40;;;;;;5042103;28;20041;-77
2023/10/27 01:02:11;;;;;;;10.88;8.35;;;13.50;77.40;;;;;;5037208;28;20025;-76
2023/10/27 01:04:38;;;;;;;12.15;8.88;;;13.50;77.40;;;;;;5035833;28;20036;-76
2023/10/27 01:07:04;;;;;;;12.32;9.23;;;13.50;77.40;;;;;;5026762;28;20117;-77
2023/10/27 01:09:30;;;;;;;11.57;8.55;;;13.50;77.40;;;;;;5034950;28;20423;-77
2023/10/27 01:11:56;;;;;;;11.85;9.00;;;13.50;77.40;;;;;;5049431;28;20391;-77
2023/10/27 01:14:22;;;;;;;10.75;8.00;;;13.50;77.40;;;;;;4989000;28;20028;-77
2023/10/27 01:16:49;;;;;;;11.98;8.95;;;13.50;77.40;;;;;;4999905;28;20049;-76
2023/10/27 01:19:15;;;;;;;12.60;9.15;;;13.50;77.40;;;;;;5034785;28;20034;-76
2023/10/27 01:21:42;;;;;;;11.75;8.60;;;13.50;77.40;;;;;;5043363;28;20108;-77
2023/10/27 01:24:08;;;;;;;11.77;8.85;;;13.50;77.40;;;;;;5042009;28;20036;-78
2023/10/27 01:26:34;;;;;;;10.40;8.05;;;13.50;77.50;;;;;;5021199;28;20033;-77
2023/10/27 01:29:00;;;;;;;12.20;9.25;;;13.60;77.50;;;;;;5021717;28;20111;-76
2023/10/27 01:31:26;;;;;;;12.75;9.60;;;13.50;77.50;;;;;;5002616;28;20466;-77
2023/10/27 01:33:52;;;;;;;12.88;8.48;;;13.50;77.50;;;;;;5018738;28;20686;-77
2023/10/27 01:36:17;;;;;;;12.63;9.25;;;13.50;77.50;;;;;;5031173;28;20055;-77
2023/10/27 01:38:43;;;;;;;11.77;9.10;;;13.50;77.50;;;;;;5005139;28;20039;-77
2023/10/27 01:41:09;;;;;;;11.65;8.65;;;13.50;77.50;;;;;;5005530;28;20057;-76
2023/10/27 01:43:35;;;;;;;12.13;9.18;;;13.50;77.50;;;;;;5015877;28;20029;-77
2023/10/27 01:46:01;;;;;;;11.00;8.40;;;13.50;77.50;;;;;;5040205;28;20033;-76
2023/10/27 01:48:27;;;;;;;12.48;8.98;;;13.50;77.50;;;;;;5007481;28;20033;-77
2023/10/27 01:50:54;;;;;;;12.43;9.15;;;13.50;77.50;;;;;;5013370;28;20108;-77
2023/10/27 01:53:20;;;;;;;12.23;9.05;;;13.50;77.50;;;;;;5031981;28;20483;-76
2023/10/27 01:55:46;;;;;;;12.43;8.95;;;13.50;77.50;;;;;;5020077;28;20104;-77
2023/10/27 01:58:12;;;;;;;13.25;9.13;;;13.50;77.50;;;;;;5031118;28;20163;-76
2023/10/27 02:00:37;;;;;;;11.35;8.60;;;13.50;77.50;;;;;;5029199;28;20034;-76
2023/10/27 02:03:03;;;;;;;12.48;8.73;;;13.50;77.50;;;;;;5021130;28;20045;-77
2023/10/27 02:05:29;;;;;;;11.93;9.07;;;13.50;77.50;;;;;;5011493;28;20037;-76
2023/10/27 02:07:55;;;;;;;12.60;8.70;;;13.50;77.50;;;;;;5038337;28;20433;-77
2023/10/27 02:10:20;;;;;;;11.88;9.07;;;13.60;77.50;;;;;;5009551;28;20037;-76
2023/10/27 02:12:46;;;;;;;13.50;9.77;;;13.50;77.50;;;;;;5034946;28;20033;-76
2023/10/27 02:15:12;;;;;;;12.35;9.23;;;13.50;77.50;;;;;;5024475;28;20131;-77
2023/10/27 02:17:39;;;;;;;12.32;8.65;;;13.60;77.50;;;;;;5023076;28;20049;-76
2023/10/27 02:20:07;;;;;;;11.52;8.48;;;13.50;77.50;;;;;;4998437;28;20025;-77
2023/10/27 02:22:32;;;;;;;11.68;8.63;;;13.60;77.60;;;;;;5014185;28;20029;-77
2023/10/27 02:24:58;;;;;;;12.50;8.98;;;13.50;77.50;;;;;;5039861;28;20424;-77
2023/10/27 02:27:26;;;;;;;11.52;8.50;;;13.50;77.50;;;;;;5012959;28;20029;-77
2023/10/27 02:29:51;;;;;;;12.38;9.07;;;13.50;77.50;;;;;;5004039;28;20100;-77
2023/10/27 02:32:18;;;;;;;11.93;8.93;;;13.60;77.80;;;;;;5016787;28;20433;-77
2023/10/27 02:34:43;;;;;;;12.57;9.27;;;13.50;77.50;;;;;;5013744;28;20037;-78
2023/10/27 02:37:09;;;;;;;11.32;8.65;;;13.60;77.60;;;;;;5013335;28;20028;-77
2023/10/27 02:39:35;;;;;;;12.30;9.48;;;13.50;77.50;;;;;;4988613;28;20360;-76
2023/10/27 02:42:00;;;;;;;12.25;9.27;;;13.60;77.60;;;;;;4999579;28;20030;-77
2023/10/27 02:44:26;;;;;;;12.35;9.27;;;13.60;77.60;;;;;;5023543;28;20059;-78
2023/10/27 02:46:52;;;;;;;11.90;8.73;;;13.60;77.60;;;;;;5000084;28;20029;-78
2023/10/27 02:49:18;;;;;;;11.80;8.70;;;13.60;77.60;;;;;;5030911;28;20105;-76
2023/10/27 02:51:44;;;;;;;11.45;8.45;;;13.60;77.60;;;;;;5005675;28;20117;-76
2023/10/27 02:54:10;;;;;;;12.15;8.63;;;13.60;77.60;;;;;;5023467;28;20056;-77
2023/10/27 02:56:35;;;;;;;11.85;8.98;;;13.60;77.60;;;;;;5019082;28;20029;-77
2023/10/27 02:59:05;;;;;;;12.80;9.10;;;13.60;77.60;;;;;;5024629;28;20506;-77
2023/10/27 03:01:31;;;;;;;12.30;8.68;;;13.60;77.60;;;;;;5031163;28;20037;-77
2023/10/27 03:03:57;;;;;;;11.30;8.82;;;13.60;77.60;;;;;;5019900;28;20029;-78
2023/10/27 03:06:23;;;;;;;11.38;8.65;;;13.60;77.60;;;;;;5035483;28;20117;-77
2023/10/27 03:08:49;;;;;;;12.13;8.85;;;13.60;77.60;;;;;;5024373;28;20045;-77
2023/10/27 03:11:14;;;;;;;11.50;8.25;;;13.60;77.60;;;;;;5038573;28;20045;-77
2023/10/27 03:13:40;;;;;;;11.98;8.55;;;13.60;77.60;;;;;;5028870;28;20531;-76
2023/10/27 03:16:06;;;;;;;10.45;8.00;;;13.60;77.60;;;;;;4998633;28;21712;-77
2023/10/27 03:18:32;;;;;;;12.10;8.55;;;13.60;77.60;;;;;;5014424;28;20033;-77
2023/10/27 03:21:03;;;;;;;11.90;8.90;;;13.60;77.60;;;;;;5018209;28;20095;-77
2023/10/27 03:23:29;;;;;;;12.07;8.95;;;13.60;77.60;;;;;;5037152;28;20037;-77
2023/10/27 03:25:55;;;;;;;12.45;8.68;;;13.60;77.60;;;;;;5044311;28;20094;-77
2023/10/27 03:28:21;;;;;;;12.38;8.95;;;13.60;77.60;;;;;;5004255;28;20482;-76
2023/10/27 03:30:48;;;;;;;12.05;8.77;;;13.50;77.50;;;;;;5040326;28;20052;-77
2023/10/27 03:33:14;;;;;;;12.40;8.30;;;13.60;77.60;;;;;;5041706;28;20079;-77
2023/10/27 03:35:42;;;;;;;11.20;8.30;;;13.60;77.60;;;;;;5040259;28;20526;-77
2023/10/27 03:38:12;;;;;;;9.98;7.90;;;13.60;77.70;;;;;;5038910;28;20047;-77
2023/10/27 03:40:41;;;;;;;11.60;8.35;;;13.60;77.70;;;;;;5028386;28;20036;-76
2023/10/27 03:43:09;;;;;;;11.95;8.00;;;13.60;77.60;;;;;;5043914;28;20053;-77
2023/10/27 03:45:35;;;;;;;10.75;7.78;;;13.60;77.70;;;;;;5036570;28;20367;-77
2023/10/27 03:48:01;;;;;;;11.30;7.72;;;13.60;77.70;;;;;;5045514;28;20060;-77
2023/10/27 03:50:27;;;;;;;11.25;8.43;;;13.60;77.70;;;;;;5034371;28;20055;-76
2023/10/27 03:52:53;;;;;;;11.68;8.55;;;13.60;77.60;;;;;;5043742;28;20052;-77
2023/10/27 03:55:19;;;;;;;11.23;7.93;;;13.60;77.60;;;;;;5046190;28;20040;-77
2023/10/27 03:57:44;;;;;;;10.65;7.75;;;13.60;77.60;;;;;;5020801;28;20042;-77
2023/10/27 04:00:11;;;;;;;11.55;8.45;;;13.60;77.60;;;;;;5025376;28;20045;-77
2023/10/27 04:02:39;;;;;;;10.55;7.78;;;13.60;77.60;;;;;;5035595;28;20036;-76
2023/10/27 04:05:05;;;;;;;10.60;7.90;;;13.60;77.60;;;;;;5026716;28;20037;-77
2023/10/27 04:07:31;;;;;;;10.75;8.10;;;13.60;77.60;;;;;;5043235;28;20025;-77
2023/10/27 04:09:57;;;;;;;11.00;8.25;;;13.60;77.70;;;;;;5035882;28;20552;-76
2023/10/27 04:12:23;;;;;;;11.02;8.02;;;13.60;77.60;;;;;;5016639;28;20026;-76
2023/10/27 04:14:49;;;;;;;10.07;8.05;;;13.70;77.70;;;;;;5016504;28;20048;-77
2023/10/27 04:17:15;;;;;;;10.43;7.80;;;13.60;77.70;;;;;;5003107;28;20052;-77
2023/10/27 04:19:43;;;;;;;10.20;7.68;;;13.60;77.70;;;;;;5013473;28;20132;-77
2023/10/27 04:22:09;;;;;;;11.23;7.90;;;13.60;77.70;;;;;;5031942;28;20033;-77
2023/10/27 04:24:35;;;;;;;8.82;6.60;;;13.60;77.70;;;;;;5028199;28;20057;-77
2023/10/27 04:27:01;;;;;;;10.73;7.53;;;13.60;77.70;;;;;;5029828;28;20072;-78
2023/10/27 04:29:26;;;;;;;9.50;7.22;;;13.60;77.70;;;;;;5020129;28;20093;-77
2023/10/27 04:31:52;;;;;;;8.98;6.93;;;13.60;77.70;;;;;;5030787;28;20503;-78
2023/10/27 04:34:18;;;;;;;9.57;6.68;;;13.60;77.70;;;;;;5018864;28;20111;-78
2023/10/27 04:36:44;;;;;;;9.02;6.53;;;13.70;77.70;;;;;;5027740;28;20485;-78
2023/10/27 04:39:10;;;;;;;10.68;7.53;;;13.60;77.70;;;;;;5027465;28;20394;-78
2023/10/27 04:41:36;;;;;;;8.93;6.43;;;13.70;77.70;;;;;;5020163;28;20124;-79
2023/10/27 04:44:02;;;;;;;9.98;7.40;;;13.60;77.70;;;;;;5009982;28;20057;-78
2023/10/27 04:46:27;;;;;;;9.48;6.80;;;13.70;77.70;;;;;;5005903;28;20034;-78
2023/10/27 04:48:55;;;;;;;8.88;6.38;;;13.60;77.60;;;;;;5025184;28;20041;-76
2023/10/27 04:51:23;;;;;;;9.27;6.93;;;13.70;77.70;;;;;;5033737;28;20557;-78
2023/10/27 04:53:49;;;;;;;8.48;6.25;;;13.70;77.70;;;;;;5032695;28;20029;-77
2023/10/27 04:56:16;;;;;;;9.07;6.65;;;13.70;77.70;;;;;;5015797;28;20040;-79
2023/10/27 04:58:42;;;;;;;9.68;6.75;;;13.70;77.70;;;;;;5027571;28;20444;-78
2023/10/27 05:01:08;;;;;;;8.73;6.50;;;13.70;77.80;;;;;;5026711;28;20025;-80
2023/10/27 05:03:34;;;;;;;8.38;6.38;;;13.70;77.70;;;;;;5028687;28;20087;-78
2023/10/27 05:06:10;;;;;;;8.45;6.60;;;13.70;77.70;;;;;;4995521;28;20029;-77
2023/10/27 05:08:37;;;;;;;8.90;6.30;;;13.70;77.80;;;;;;5027119;28;20025;-78
2023/10/27 05:11:04;;;;;;;8.35;5.63;;;13.70;77.80;;;;;;5025505;28;20067;-78
2023/10/27 05:13:30;;;;;;;8.45;5.82;;;13.70;77.80;;;;;;5039273;28;20026;-77
2023/10/27 05:15:55;;;;;;;8.15;6.07;;;13.70;77.70;;;;;;5025765;28;20025;-77
2023/10/27 05:18:21;;;;;;;7.18;5.38;;;13.70;77.80;;;;;;5028742;28;20120;-78
2023/10/27 05:20:47;;;;;;;7.85;5.72;;;13.70;77.70;;;;;;5010424;28;20402;-79
2023/10/27 05:23:13;;;;;;;7.40;5.68;;;13.70;77.80;;;;;;5026453;28;20351;-77
2023/10/27 05:25:40;;;;;;;7.32;5.43;;;13.70;77.70;;;;;;5008692;28;20025;-78
2023/10/27 05:28:06;;;;;;;7.55;5.45;;;13.70;77.70;;;;;;5005882;28;20032;-77
2023/10/27 05:30:34;;;;;;;8.32;5.72;;;13.70;77.70;;;;;;5029426;28;20042;-78
2023/10/27 05:33:01;;;;;;;7.68;5.72;;;13.70;77.80;;;;;;5017247;28;20087;-77
2023/10/27 05:35:26;;;;;;;7.35;5.35;;;13.70;77.70;;;;;;5033741;28;20044;-77
2023/10/27 05:37:52;;;;;;;8.45;5.97;;;13.70;77.80;;;;;;5027146;28;20026;-78
2023/10/27 05:40:18;;;;;;;7.15;5.00;;;13.70;77.70;;;;;;5042349;28;20025;-76
2023/10/27 05:42:44;;;;;;;6.60;4.93;;;13.70;77.70;;;;;;5034447;28;20034;-78
2023/10/27 05:45:13;;;;;;;7.78;5.97;;;13.70;77.80;;;;;;5006968;28;20033;-77
2023/10/27 05:47:40;;;;;;;6.70;5.00;;;13.70;77.70;;;;;;5046449;28;20025;-78
2023/10/27 05:50:07;;;;;;;7.03;4.70;;;13.70;77.80;;;;;;5040720;28;20135;-80
2023/10/27 05:52:33;;;;;;;7.18;5.40;;;13.70;77.80;;;;;;5036939;28;20026;-77
2023/10/27 05:54:59;;;;;;;6.18;4.68;;;13.70;77.80;;;;;;5032933;28;20116;-77
2023/10/27 05:57:24;;;;;;;6.68;4.68;;;13.70;77.80;;;;;;5039334;28;20425;-77
2023/10/27 05:59:50;;;;;;;6.60;4.70;;;13.70;77.80;;;;;;5026022;28;20067;-80
2023/10/27 06:02:16;;;;;;;7.10;5.18;;;13.70;77.80;;;;;;5026547;28;20025;-78
2023/10/27 06:04:42;;;;;;;6.38;4.63;;;13.70;77.70;;;;;;5032636;28;20080;-77
2023/10/27 06:07:08;;;;;;;6.43;4.68;;;13.70;77.70;;;;;;5040767;28;20108;-77
2023/10/27 06:09:35;;;;;;;6.45;4.70;;;13.70;77.80;;;;;;5015583;28;20116;-77
2023/10/27 06:12:01;;;;;;;6.10;4.38;;;13.70;77.80;;;;;;5039270;28;20043;-77
2023/10/27 06:14:27;;;;;;;6.20;4.45;;;13.70;77.80;;;;;;5033186;28;20108;-76
2023/10/27 06:16:53;;;;;;;6.47;4.88;;;13.70;77.80;;;;;;5039283;28;20059;-77
2023/10/27 06:19:20;;;;;;;6.30;4.55;;;13.70;77.80;;;;;;5022278;28;20124;-76
2023/10/27 06:21:47;;;;;;;6.18;4.43;;;13.70;77.80;;;;;;5039767;28;20098;-76
2023/10/27 06:24:13;;;;;;;5.78;4.15;;;13.70;77.80;;;;;;5033495;28;20025;-77
2023/10/27 06:26:39;;;;;;;6.38;4.40;;;13.70;77.80;;;;;;5008989;28;20394;-77
2023/10/27 06:29:04;;;;;;;5.57;4.22;;;13.70;77.80;;;;;;5020700;28;20041;-77
2023/10/27 06:31:30;;;;;;;6.47;4.63;;;13.70;77.80;;;;;;5033986;28;20038;-77
2023/10/27 06:33:56;;;;;;;5.47;3.72;;;13.70;77.80;;;;;;5029975;28;20038;-77
2023/10/27 06:36:22;;;;;;;5.32;3.92;;;13.70;77.80;;;;;;5002983;28;20025;-77
2023/10/27 06:38:48;;;;;;;6.18;4.47;;;13.70;77.80;;;;;;5031812;28;20112;-83
2023/10/27 06:41:13;;;;;;;5.55;4.25;;;13.70;77.80;;;;;;5038423;28;20061;-77
2023/10/27 06:43:39;;;;;;;5.85;4.03;;;13.70;77.80;;;;;;4999719;28;20033;-77
2023/10/27 06:46:05;;;;;;;5.03;3.83;;;13.70;77.80;;;;;;5034775;28;20029;-77
2023/10/27 06:48:31;;;;;;;5.30;3.80;;;13.70;77.80;;;;;;5035904;28;20026;-77
2023/10/27 06:50:56;;;;;;;5.47;3.95;;;13.70;77.80;;;;;;5045890;28;20041;-78
2023/10/27 06:53:22;;;;;;;5.10;3.38;;;13.70;77.80;;;;;;5022351;28;20037;-77
2023/10/27 06:55:48;;;;;;;4.85;3.80;;;13.70;77.80;;;;;;5044536;28;20541;-77
2023/10/27 06:58:14;;;;;;;5.63;4.10;;;13.70;77.80;;;;;;5046472;28;20028;-77
2023/10/27 07:00:39;;;;;;;5.10;3.60;;;13.70;77.80;;;;;;5037321;28;20060;-77
2023/10/27 07:03:05;;;;;;;6.07;4.03;;;13.70;77.80;;;;;;5026126;28;20108;-77
2023/10/27 07:05:31;;;;;;;5.50;3.78;;;13.70;77.80;;;;;;5043269;28;20029;-78
2023/10/27 07:07:56;;;;;;;4.95;3.55;;;13.70;77.80;;;;;;5044726;28;20041;-77
2023/10/27 07:10:23;;;;;;;5.53;4.03;;;13.70;77.80;;;;;;5043009;28;20040;-77
2023/10/27 07:12:49;;;;;;;5.28;4.00;;;13.70;77.80;;;;;;5039706;28;20089;-77
2023/10/27 07:15:14;;;;;;;4.97;3.45;;;13.70;77.80;;;;;;5037066;28;20037;-77
2023/10/27 07:17:43;;;;;;;5.38;3.95;;;13.70;77.80;;;;;;5017430;28;20042;-77
2023/10/27 07:20:09;;;;;;;4.90;3.72;;;13.70;77.80;;;;;;5011786;28;20026;-77
2023/10/27 07:22:36;;;;;;;5.07;3.80;;;13.70;77.80;;;;;;5040753;28;20386;-77
2023/10/27 07:25:03;;;;;;;5.25;3.40;;;13.70;77.80;;;;;;5001087;28;20041;-77
2023/10/27 07:27:29;;;;;;;5.57;3.80;;;13.70;77.80;;;;;;5034358;28;20110;-77
2023/10/27 07:29:54;;;;;;;5.30;3.50;;;13.70;77.80;;;;;;5043673;28;20502;-76
2023/10/27 07:32:21;;;;;;;5.60;3.83;;;13.70;77.80;;;;;;5028060;28;20029;-77
2023/10/27 07:34:48;;;;;;;4.32;3.22;;;13.70;77.80;;;;;;5043174;28;20432;-77
2023/10/27 07:37:14;;;;;;;5.32;3.70;;;13.70;77.90;;;;;;5035838;28;20889;-78
2023/10/27 07:39:39;;;;;;;4.57;3.13;;;13.70;77.80;;;;;;5025218;28;20041;-77
2023/10/27 07:42:07;;;;;;;4.57;3.42;;;13.70;77.90;;;;;;5036784;28;20080;-77
2023/10/27 07:44:33;;;;;;;5.28;3.67;;;13.70;77.80;;;;;;5026543;28;20030;-77
2023/10/27 07:46:59;;;;;;;4.65;3.40;;;13.70;77.80;;;;;;5023132;28;20378;-77
2023/10/27 07:49:25;;;;;;;4.30;3.38;;;13.70;77.80;;;;;;5026030;28;20478;-76
2023/10/27 07:51:51;;;;;;;4.38;3.35;;;13.70;77.80;;;;;;5009656;28;20044;-77
2023/10/27 07:54:17;;;;;;;5.40;3.97;;;13.70;77.80;;;;;;5033431;28;20076;-77
2023/10/27 07:56:42;;;;;;;4.75;3.63;;;13.70;77.90;;;;;;5035008;28;20036;-77
2023/10/27 07:59:08;;;;;;;4.43;3.17;;;13.70;77.90;;;;;;5036790;28;20382;-77
2023/10/27 08:01:34;;;;;;;5.32;3.72;;;13.70;77.90;;;;;;5020962;28;20029;-77
2023/10/27 08:04:02;;;;;;;4.30;3.22;;;13.70;77.90;;;;;;5020839;28;20029;-77
2023/10/27 08:06:29;;;;;;;5.15;3.75;;;13.70;77.90;;;;;;5049414;28;20038;-77
2023/10/27 08:08:55;;;;;;;5.28;3.88;;;13.70;77.90;;;;;;5020816;28;20032;-77
2023/10/27 08:11:21;;;;;;;4.80;3.83;;;13.70;77.90;;;;;;5015718;28;20037;-76
2023/10/27 08:13:47;;;;;;;4.88;3.67;;;13.70;77.90;;;;;;5020342;28;20048;-77
2023/10/27 08:16:16;;;;;;;5.10;3.80;;;13.80;77.90;;;;;;5020087;28;20049;-77
2023/10/27 08:18:42;;;;;;;4.95;3.58;;;13.70;77.90;;;;;;5035318;28;20029;-77
2023/10/27 08:21:08;;;;;;;4.70;3.67;;;13.80;78.00;;;;;;4993460;28;20039;-77
2023/10/27 08:23:33;;;;;;;5.00;3.75;;;13.80;78.00;;;;;;5021679;28;20025;-76
2023/10/27 08:25:59;;;;;;;4.93;3.47;;;13.70;77.90;;;;;;5042393;28;20075;-78
2023/10/27 08:28:27;;;;;;;5.80;4.18;;;13.80;78.00;;;;;;5036828;28;20032;-77
2023/10/27 08:30:53;;;;;;;5.50;4.00;;;13.80;78.00;;;;;;5031641;28;20041;-78
2023/10/27 08:33:19;;;;;;;5.28;3.83;;;13.80;78.00;;;;;;5024894;28;20033;-77
2023/10/27 08:35:45;;;;;;;4.93;3.60;;;13.80;77.90;;;;;;5022168;28;20026;-77
2023/10/27 08:38:10;;;;;;;5.03;3.55;;;13.80;78.00;;;;;;5016340;28;20449;-77
2023/10/27 08:40:36;;;;;;;5.57;3.92;;;13.80;78.00;;;;;;5037969;28;20124;-77
2023/10/27 08:43:05;;;;;;;5.07;3.47;;;13.80;78.00;;;;;;5019287;28;20018;-77
2023/10/27 08:45:35;;;;;;;4.85;3.53;;;13.80;78.00;;;;;;4998393;28;20041;-77
2023/10/27 08:48:01;;;;;;;6.15;4.38;;;13.80;78.00;;;;;;5035579;28;20447;-77
2023/10/27 08:50:29;;;;;;;5.88;4.18;;;13.80;78.00;;;;;;4997895;28;20076;-78
2023/10/27 08:52:55;;;;;;;4.43;3.28;;;13.80;78.00;;;;;;5045545;28;20082;-77
2023/10/27 08:55:21;;;;;;;5.40;3.67;;;13.80;78.00;;;;;;5027107;28;20037;-77
2023/10/27 08:57:47;;;;;;;5.20;3.63;;;13.80;78.00;;;;;;5021120;28;20060;-77
2023/10/27 09:00:13;;;;;;;4.90;3.50;;;13.80;78.00;;;;;;5006694;28;20072;-77
2023/10/27 09:02:39;;;;;;;5.15;3.88;;;13.80;78.00;;;;;;5047271;28;20087;-77
2023/10/27 09:05:06;;;;;;;4.78;3.67;;;13.80;78.00;;;;;;5027554;28;20033;-77
2023/10/27 09:07:33;;;;;;;4.18;3.30;;;13.80;78.00;;;;;;5035060;28;20044;-77
2023/10/27 09:10:00;;;;;;;5.82;3.95;;;13.80;78.00;;;;;;5002037;28;20500;-77
2023/10/27 09:12:28;;;;;;;5.40;3.83;;;13.80;78.00;;;;;;5039585;28;20185;-78
2023/10/27 09:15:07;;;;;;;5.80;3.78;;;13.80;78.00;;;;;;5033708;28;20034;-76
2023/10/27 09:17:53;;;;;;;5.05;3.70;;;13.80;78.00;;;;;;5014934;28;20076;-77
2023/10/27 09:20:26;;;;;;;5.05;3.58;;;13.80;78.00;;;;;;5043673;28;20033;-77
2023/10/27 09:23:04;;;;;;;4.53;3.38;;;13.80;78.00;;;;;;5035697;28;20489;-79
2023/10/27 09:25:34;;;;;;;4.97;3.63;;;13.80;78.00;;;;;;5024598;28;20030;-77
2023/10/27 09:28:02;;;;;;;4.72;3.53;;;13.80;78.00;;;;;;5030571;28;20471;-77
2023/10/27 09:30:34;;;;;;;4.43;3.40;;;13.80;78.00;;;;;;5019277;28;20025;-77
2023/10/27 09:33:13;;;;;;;5.32;3.80;;;13.80;78.00;;;;;;5037788;28;20021;-77
2023/10/27 09:35:40;;;;;;;4.72;3.53;;;13.80;78.00;;;;;;5037091;28;20025;-77
2023/10/27 09:38:08;;;;;;;4.15;3.15;;;13.80;78.00;;;;;;5031124;28;20033;-77
2023/10/27 09:40:37;;;;;;;5.18;3.60;;;13.80;78.00;;;;;;5042141;28;20124;-77
2023/10/27 09:43:06;;;;;;;4.82;3.53;;;13.90;78.00;;;;;;5020635;28;20029;-78
2023/10/27 09:45:37;;;;;;;4.90;3.65;;;13.80;78.00;;;;;;5031469;28;20037;-76
2023/10/27 09:48:06;;;;;;;4.43;3.35;;;13.80;78.00;;;;;;5040381;28;20056;-77
2023/10/27 09:50:32;;;;;;;4.85;3.35;;;13.80;78.00;;;;;;5035521;28;20033;-77
2023/10/27 09:53:00;;;;;;;5.00;3.70;;;13.90;78.00;;;;;;5034692;28;20044;-77
2023/10/27 09:55:33;;;;;;;4.95;3.60;;;13.90;78.00;;;;;;5014249;28;20033;-77
2023/10/27 09:58:02;;;;;;;4.75;3.42;;;13.90;78.00;;;;;;5034988;28;20108;-77
2023/10/27 10:00:30;;;;;;;4.57;3.30;;;13.90;78.00;;;;;;5027860;28;20039;-77
2023/10/27 10:02:57;;;;;;;4.82;3.58;;;13.90;78.00;;;;;;5034926;28;20033;-77
2023/10/27 10:05:26;;;;;;;4.75;3.50;;;13.90;78.00;;;;;;5033511;28;20018;-77
2023/10/27 10:07:56;;;;;;;4.43;3.50;;;13.90;78.00;;;;;;5014615;28;20030;-77
2023/10/27 10:10:34;;;;;;;4.10;3.22;;;13.90;77.90;;;;;;5037952;28;20372;-77
2023/10/27 10:13:00;;;;;;;4.43;3.17;;;13.90;77.90;;;;;;5028175;28;20104;-77
2023/10/27 10:15:27;;;;;;;4.22;2.92;;;13.90;77.90;;;;;;5036509;28;20151;-77
2023/10/27 10:17:53;;;;;;;4.35;3.38;;;13.90;77.90;;;;;;5019081;28;20444;-79
2023/10/27 10:20:44;;;;;;;4.72;3.40;;;13.90;77.90;;;;;;5031586;28;20037;-79
2023/10/27 10:23:13;;;;;;;3.97;3.08;;;13.90;78.00;;;;;;5039574;28;20033;-79
2023/10/27 10:25:58;;;;;;;4.32;3.22;;;13.90;77.80;;;;;;5006356;28;20057;-78
2023/10/27 10:28:25;;;;;;;3.83;2.83;;;14.00;78.00;;;;;;5042096;28;20473;-78
2023/10/27 10:33:36;;;;;;;4.15;3.10;;;14.00;78.00;;;;;;5049298;28;20083;-79
2023/10/27 10:36:14;;;;;;;4.50;3.22;;;14.00;77.90;;;;;;5016287;28;20036;-76
2023/10/27 10:38:56;;;;;;;3.83;2.92;;;14.00;78.00;;;;;;5037838;28;20022;-75
2023/10/27 10:41:52;;;;;;;3.55;2.80;;;14.00;77.90;;;;;;5042168;28;20075;-80
2023/10/27 10:44:18;;;;;;;4.05;2.88;;;14.00;77.90;;;;;;5020716;28;20454;-77
2023/10/27 10:46:45;;;;;;;4.05;3.35;;;14.00;77.80;;;;;;5024676;28;20128;-76
2023/10/27 10:49:27;;;;;;;4.15;2.97;;;14.00;77.90;;;;;;5043505;28;20098;-78
2023/10/27 10:51:57;;;;;;;4.03;3.17;;;14.00;78.00;;;;;;5010478;28;20068;-77
2023/10/27 10:54:31;;;;;;;3.67;2.80;;;14.00;77.90;;;;;;5047837;28;20037;-76
2023/10/27 10:57:00;;;;;;;4.00;3.20;;;14.10;78.00;;;;;;5031726;28;20033;-77
2023/10/27 10:59:26;;;;;;;3.78;2.75;;;14.00;77.80;;;;;;5011167;28;20048;-77
2023/10/27 11:01:56;;;;;;;4.57;3.33;;;14.10;77.90;;;;;;5045564;28;20029;-77
2023/10/27 11:04:30;;;;;;;4.22;3.28;;;14.10;77.90;;;;;;5014105;28;20096;-77
2023/10/27 11:07:00;;;;;;;4.32;3.10;;;14.10;77.90;;;;;;5039557;28;20029;-78
2023/10/27 11:09:27;;;;;;;4.30;3.05;;;14.10;77.90;;;;;;5036078;28;20030;-78
2023/10/27 11:11:54;;;;;;;4.22;3.28;;;14.10;77.90;;;;;;5043472;28;20569;-77
2023/10/27 11:14:20;;;;;;;3.88;2.85;;;14.10;77.80;;;;;;5012551;28;20033;-77
2023/10/27 11:17:02;;;;;;;3.83;3.00;;;14.10;77.90;;;;;;5041385;28;20114;-77
2023/10/27 11:19:28;;;;;;;3.67;2.80;;;14.10;77.90;;;;;;5036245;28;20037;-76
2023/10/27 11:21:55;;;;;;;4.15;2.92;;;14.10;77.80;;;;;;5041622;28;20041;-76
2023/10/27 11:24:22;;;;;;;3.60;2.83;;;14.10;77.80;;;;;;5042769;28;20028;-77
2023/10/27 11:26:48;;;;;;;4.10;3.30;;;14.20;77.90;;;;;;5025706;28;20029;-77
2023/10/27 11:29:14;;;;;;;3.60;2.60;;;14.20;77.80;;;;;;5000564;28;20356;-77
2023/10/27 11:31:42;;;;;;;3.33;2.70;;;14.20;77.90;;;;;;5045274;28;20051;-77
2023/10/27 11:34:09;;;;;;;4.50;2.92;;;14.20;77.80;;;;;;5044907;28;20030;-77
2023/10/27 11:36:38;;;;;;;3.50;2.97;;;14.20;77.80;;;;;;5028800;28;20028;-77
2023/10/27 11:39:17;;;;;;;3.92;2.67;;;14.20;77.80;;;;;;5040424;28;20037;-77
2023/10/27 11:41:49;;;;;;;3.78;2.90;;;14.20;77.80;;;;;;5025561;28;20056;-77
2023/10/27 11:44:16;;;;;;;3.58;2.50;;;14.20;77.70;;;;;;5034812;28;20028;-76
2023/10/27 11:47:01;;;;;;;3.35;2.63;;;14.30;77.80;;;;;;5033905;28;20083;-77
2023/10/27 11:49:28;;;;;;;3.50;2.72;;;14.20;77.70;;;;;;5035275;28;20041;-77
2023/10/27 11:51:56;;;;;;;3.72;2.80;;;14.30;77.60;;;;;;5041676;28;20029;-76
2023/10/27 11:54:26;;;;;;;3.15;2.55;;;14.30;77.60;;;;;;5036174;28;20390;-76
2023/10/27 11:56:52;;;;;;;3.50;2.83;;;14.30;77.60;;;;;;5045095;28;20124;-77
2023/10/27 11:59:20;;;;;;;3.65;2.50;;;14.30;77.60;;;;;;5019886;28;20517;-77
2023/10/27 12:01:46;;;;;;;3.58;2.80;;;14.30;77.60;;;;;;5031486;28;20037;-77
2023/10/27 12:04:12;;;;;;;3.20;2.50;;;14.30;77.60;;;;;;5036988;28;20080;-77
2023/10/27 12:06:41;;;;;;;3.70;2.63;;;14.40;77.60;;;;;;5033347;28;20095;-76
2023/10/27 12:09:08;;;;;;;3.25;2.50;;;14.30;77.60;;;;;;5044888;28;20053;-77
2023/10/27 12:11:34;;;;;;;3.22;2.50;;;14.40;77.60;;;;;;5026824;28;20426;-77
2023/10/27 12:14:00;;;;;;;3.03;2.42;;;14.40;77.60;;;;;;5018587;28;20096;-77
2023/10/27 12:16:27;;;;;;;3.22;2.45;;;14.40;77.50;;;;;;5028000;28;20057;-77
2023/10/27 12:18:56;;;;;;;3.38;2.58;;;14.40;77.50;;;;;;5036661;28;20029;-77
2023/10/27 12:21:23;;;;;;;2.88;2.47;;;14.40;77.40;;;;;;5043888;28;20029;-77
2023/10/27 12:23:49;;;;;;;3.55;2.80;;;14.50;77.40;;;;;;5043537;28;20029;-76
2023/10/27 12:26:15;;;;;;;3.88;2.65;;;14.50;77.40;;;;;;5016762;28;20040;-76
2023/10/27 12:28:40;;;;;;;3.03;2.47;;;14.50;77.40;;;;;;5045316;28;20109;-76
2023/10/27 12:31:06;;;;;;;3.67;2.53;;;14.50;77.40;;;;;;5024584;28;20033;-76
2023/10/27 12:33:32;;;;;;;3.10;2.40;;;14.50;77.30;;;;;;5045497;28;20029;-78
2023/10/27 12:36:09;;;;;;;3.47;2.72;;;14.50;77.30;;;;;;5041891;28;20029;-76
2023/10/27 12:38:35;;;;;;;2.67;2.28;;;14.50;77.40;;;;;;5025319;28;20034;-77
2023/10/27 12:41:01;;;;;;;2.65;2.05;;;14.50;77.30;;;;;;5030052;28;20389;-77
2023/10/27 12:43:28;;;;;;;3.03;2.25;;;14.60;77.30;;;;;;5027369;28;20044;-76
2023/10/27 12:45:54;;;;;;;2.60;2.30;;;14.50;77.30;;;;;;5045375;28;20040;-77